Time;durP1;ratioP1;P1;durP2;ratioP2;P2;SDS_P1;SDS_P2;PMS_P1;PMS_P2;Temp;Humidity;BMP_temperature;BMP_pressure;BME280_temperature;BME280_humidity;BME280_pressure;Samples;Min_cycle;Max_cycle;Signal;HPM_P1;HPM_P2
2021/08/21 00:00:46;;;;;;;26.50;21.67;;;15.80;98.80;;;;;;5037397;28;20375;-71
2021/08/21 00:03:11;;;;;;;31.73;24.00;;;15.80;98.90;;;;;;5037722;28;20441;-71
2021/08/21 00:05:37;;;;;;;31.17;23.70;;;15.90;98.90;;;;;;5037073;28;20092;-71
2021/08/21 00:08:04;;;;;;;31.47;23.40;;;15.80;98.90;;;;;;5037484;28;20056;-71
2021/08/21 00:10:31;;;;;;;28.70;24.20;;;15.80;98.90;;;;;;5037827;28;20160;-71
2021/08/21 00:12:57;;;;;;;32.20;23.90;;;15.80;99.00;;;;;;5036567;28;20069;-71
2021/08/21 00:15:24;;;;;;;32.17;25.53;;;15.80;99.00;;;;;;5037545;28;20137;-71
2021/08/21 00:17:49;;;;;;;35.20;27.23;;;15.80;99.10;;;;;;5036860;28;20244;-72
2021/08/21 00:20:16;;;;;;;27.47;23.30;;;15.80;99.20;;;;;;5037517;28;20139;-71
2021/08/21 00:22:42;;;;;;;36.00;28.03;;;15.80;99.20;;;;;;5037155;28;20446;-72
2021/08/21 00:25:08;;;;;;;34.10;26.60;;;15.80;99.30;;;;;;5036930;28;20049;-72
2021/08/21 00:27:34;;;;;;;34.83;26.97;;;15.90;99.30;;;;;;5037537;28;20045;-72
2021/08/21 00:30:01;;;;;;;34.93;27.30;;;15.90;99.30;;;;;;5037237;28;20049;-71
2021/08/21 00:32:26;;;;;;;35.53;28.23;;;15.90;99.30;;;;;;5037161;28;20060;-72
2021/08/21 00:34:52;;;;;;;33.27;26.70;;;15.90;99.70;;;;;;5037343;28;20486;-72
2021/08/21 00:37:18;;;;;;;36.40;26.63;;;16.00;99.20;;;;;;5037634;28;20059;-72
2021/08/21 00:39:43;;;;;;;28.03;23.00;;;16.00;99.20;;;;;;5036660;28;20071;-72
2021/08/21 00:42:10;;;;;;;33.60;25.20;;;16.00;99.20;;;;;;5037609;28;20047;-71
2021/08/21 00:44:37;;;;;;;33.47;25.47;;;16.00;99.30;;;;;;5037672;28;20046;-71
2021/08/21 00:47:13;;;;;;;32.70;24.07;;;16.00;99.30;;;;;;5036662;28;20041;-71
2021/08/21 00:49:40;;;;;;;33.80;25.70;;;16.00;99.30;;;;;;5033838;28;20528;-72
2021/08/21 00:52:07;;;;;;;33.93;25.70;;;16.00;99.40;;;;;;5034284;28;20053;-71
2021/08/21 00:54:34;;;;;;;32.53;26.10;;;16.00;99.40;;;;;;5033460;28;20049;-71
2021/08/21 00:57:03;;;;;;;36.27;26.13;;;15.90;99.40;;;;;;5034182;28;20072;-72
2021/08/21 00:59:37;;;;;;;35.97;26.87;;;15.90;99.50;;;;;;5034635;28;20056;-72
2021/08/21 01:02:04;;;;;;;40.23;28.30;;;15.90;99.50;;;;;;5033452;28;20392;-72
2021/08/21 01:04:32;;;;;;;36.23;27.13;;;16.00;99.90;;;;;;5034249;28;20046;-72
2021/08/21 01:07:00;;;;;;;35.30;27.90;;;15.90;99.50;;;;;;5032946;28;20045;-71
2021/08/21 01:09:26;;;;;;;40.30;30.00;;;15.90;99.50;;;;;;5033833;28;20103;-71
2021/08/21 01:11:52;;;;;;;34.37;24.70;;;15.80;99.40;;;;;;5033797;28;20046;-71
2021/08/21 01:14:18;;;;;;;34.57;26.50;;;15.80;99.40;;;;;;5033245;28;20045;-71
2021/08/21 01:16:44;;;;;;;35.53;27.60;;;15.70;99.40;;;;;;5033630;28;20057;-71
2021/08/21 01:19:11;;;;;;;37.90;28.23;;;15.70;99.50;;;;;;5033523;28;20107;-71
2021/08/21 01:21:37;;;;;;;37.93;28.80;;;15.70;99.60;;;;;;5033155;28;20072;-72
2021/08/21 01:24:04;;;;;;;37.80;29.83;;;15.70;99.60;;;;;;5033402;28;20490;-71
2021/08/21 01:26:30;;;;;;;41.87;30.27;;;15.70;99.70;;;;;;5034039;28;20129;-71
2021/08/21 01:28:58;;;;;;;40.53;30.33;;;15.60;99.70;;;;;;5032647;28;20071;-72
2021/08/21 01:31:23;;;;;;;34.13;27.13;;;15.60;99.70;;;;;;5033519;28;20057;-72
2021/08/21 01:33:49;;;;;;;38.53;29.47;;;15.70;99.80;;;;;;5032895;28;20140;-71
2021/08/21 01:36:15;;;;;;;37.53;30.17;;;15.60;99.80;;;;;;5032639;28;20060;-71
2021/08/21 01:38:57;;;;;;;38.87;30.60;;;15.70;99.90;;;;;;5033053;28;20471;-71
2021/08/21 01:41:23;;;;;;;40.20;30.70;;;15.70;99.80;;;;;;5033486;28;20132;-71
2021/08/21 01:43:49;;;;;;;37.47;29.23;;;15.70;99.80;;;;;;5032484;28;20128;-72
2021/08/21 01:46:15;;;;;;;39.73;29.73;;;15.60;99.80;;;;;;5033249;28;20136;-72
2021/08/21 01:48:42;;;;;;;38.63;28.83;;;15.60;99.90;;;;;;5032990;28;20041;-72
2021/08/21 01:51:08;;;;;;;39.33;29.73;;;15.60;99.90;;;;;;5032241;28;20069;-71
2021/08/21 01:53:33;;;;;;;38.57;30.03;;;15.70;99.90;;;;;;5033248;28;20479;-71
2021/08/21 01:56:00;;;;;;;35.67;27.73;;;15.70;99.90;;;;;;5032903;28;20080;-72
2021/08/21 01:58:25;;;;;;;37.07;29.83;;;15.60;99.90;;;;;;5032451;28;20073;-72
2021/08/21 02:00:51;;;;;;;40.70;29.93;;;15.60;99.90;;;;;;5032614;28;20084;-71
2021/08/21 02:03:18;;;;;;;36.17;28.77;;;15.60;99.80;;;;;;5032352;28;20045;-71
2021/08/21 02:05:45;;;;;;;36.80;30.20;;;15.60;99.80;;;;;;5032550;28;20060;-71
2021/08/21 02:08:11;;;;;;;36.43;28.83;;;15.60;99.80;;;;;;5032956;28;20213;-71
2021/08/21 02:10:37;;;;;;;35.60;28.67;;;15.60;99.80;;;;;;5032389;28;20147;-71
2021/08/21 02:13:03;;;;;;;32.53;28.70;;;15.50;99.80;;;;;;5032833;28;20368;-71
2021/08/21 02:15:28;;;;;;;36.40;29.73;;;15.50;99.80;;;;;;5032599;28;20391;-71
2021/08/21 02:17:54;;;;;;;33.40;28.53;;;15.50;99.80;;;;;;5031595;28;20061;-71
2021/08/21 02:20:20;;;;;;;35.17;27.93;;;15.50;99.80;;;;;;5032565;28;20065;-71
2021/08/21 02:22:46;;;;;;;34.60;27.47;;;15.50;99.90;;;;;;5032531;28;20052;-71
2021/08/21 02:25:14;;;;;;;36.90;27.77;;;15.50;99.80;;;;;;5031843;28;20501;-71
2021/08/21 02:27:43;;;;;;;35.13;27.67;;;15.50;99.80;;;;;;5032561;28;20057;-71
2021/08/21 02:30:09;;;;;;;35.33;28.23;;;15.50;99.80;;;;;;5032613;28;20050;-71
2021/08/21 02:32:35;;;;;;;34.40;28.57;;;15.50;99.80;;;;;;5031767;28;20053;-71
2021/08/21 02:35:02;;;;;;;35.93;28.50;;;15.50;99.80;;;;;;5031986;28;20099;-71
2021/08/21 02:37:28;;;;;;;32.00;27.23;;;15.50;99.90;;;;;;5032373;28;20053;-71
2021/08/21 02:39:54;;;;;;;33.00;26.50;;;15.50;99.90;;;;;;5031236;28;20053;-71
2021/08/21 02:42:20;;;;;;;33.67;27.93;;;15.50;99.90;;;;;;5032334;28;20045;-71
2021/08/21 02:44:46;;;;;;;32.37;28.20;;;15.50;99.90;;;;;;5031959;28;20052;-71
2021/08/21 02:47:12;;;;;;;35.00;25.77;;;15.50;99.90;;;;;;5031537;28;20049;-71
2021/08/21 02:49:37;;;;;;;33.17;26.40;;;15.50;99.90;;;;;;5032676;28;20042;-71
2021/08/21 02:52:03;;;;;;;29.23;25.63;;;15.50;99.90;;;;;;5031838;28;20050;-72
2021/08/21 02:54:30;;;;;;;30.87;26.13;;;15.50;99.90;;;;;;5031598;28;20045;-71
2021/08/21 02:56:56;;;;;;;31.90;25.93;;;15.50;99.90;;;;;;5031731;28;20045;-71
2021/08/21 02:59:22;;;;;;;35.77;26.97;;;15.50;99.90;;;;;;5031872;28;20053;-71
2021/08/21 03:01:47;;;;;;;37.97;28.87;;;15.50;99.90;;;;;;5031169;28;20045;-72
2021/08/21 03:04:13;;;;;;;38.53;29.37;;;15.50;99.90;;;;;;5031949;28;20055;-71
2021/08/21 03:06:39;;;;;;;33.60;27.73;;;15.50;99.90;;;;;;5030760;28;20045;-71
2021/08/21 03:09:06;;;;;;;33.03;26.80;;;15.50;99.90;;;;;;5031727;28;20558;-71
2021/08/21 03:11:31;;;;;;;34.40;28.03;;;15.50;99.90;;;;;;5031375;28;20068;-71
2021/08/21 03:13:57;;;;;;;30.73;27.03;;;15.50;99.90;;;;;;5030177;28;20052;-71
2021/08/21 03:16:23;;;;;;;37.37;29.80;;;15.50;99.90;;;;;;5031715;28;20052;-71
2021/08/21 03:18:49;;;;;;;37.77;29.37;;;15.50;99.90;;;;;;5031276;28;20129;-71
2021/08/21 03:21:15;;;;;;;40.77;28.87;;;15.50;99.90;;;;;;5030938;28;20132;-71
2021/08/21 03:23:42;;;;;;;37.40;29.17;;;15.50;99.90;;;;;;5031209;28;20132;-71
2021/08/21 03:26:07;;;;;;;33.67;27.77;;;15.50;99.90;;;;;;5031477;28;20075;-71
2021/08/21 03:28:33;;;;;;;35.60;29.10;;;15.50;99.90;;;;;;5030754;28;20049;-71
2021/08/21 03:30:59;;;;;;;35.47;28.37;;;15.50;99.90;;;;;;5030864;28;20406;-71
2021/08/21 03:33:24;;;;;;;33.67;28.20;;;15.50;99.90;;;;;;5031356;28;20555;-71
2021/08/21 03:35:50;;;;;;;33.67;27.23;;;15.50;99.90;;;;;;5030082;28;20046;-71
2021/08/21 03:38:16;;;;;;;41.03;28.73;;;15.50;99.90;;;;;;5030916;28;20053;-71
2021/08/21 03:40:42;;;;;;;35.03;28.50;;;15.50;99.90;;;;;;5030833;28;20046;-71
2021/08/21 03:43:08;;;;;;;38.00;28.67;;;15.50;99.90;;;;;;5030436;28;20121;-71
2021/08/21 03:45:35;;;;;;;35.60;29.57;;;15.50;99.90;;;;;;5030729;28;20159;-71
2021/08/21 03:48:01;;;;;;;33.80;27.33;;;15.50;99.90;;;;;;5030765;28;20060;-71
2021/08/21 03:50:27;;;;;;;36.40;30.60;;;15.50;99.90;;;;;;5030496;28;20042;-71
2021/08/21 03:52:52;;;;;;;36.63;28.00;;;15.50;99.90;;;;;;5033423;28;20041;-71
2021/08/21 03:55:18;;;;;;;35.87;27.43;;;15.60;99.90;;;;;;5048194;28;20053;-71
2021/08/21 03:57:44;;;;;;;38.87;29.90;;;15.60;99.90;;;;;;5050074;28;20045;-71
2021/08/21 04:00:10;;;;;;;34.07;27.63;;;15.60;99.90;;;;;;5050895;28;20539;-71
2021/08/21 04:02:36;;;;;;;36.37;27.47;;;15.60;99.90;;;;;;5051804;28;20045;-71
2021/08/21 04:05:01;;;;;;;34.80;27.30;;;15.60;99.90;;;;;;5050313;28;20056;-71
2021/08/21 04:07:27;;;;;;;30.97;23.60;;;15.60;99.90;;;;;;5051469;28;20049;-72
2021/08/21 04:09:53;;;;;;;29.13;24.53;;;15.60;99.90;;;;;;5049891;28;20049;-71
2021/08/21 04:12:18;;;;;;;37.27;27.37;;;15.60;99.90;;;;;;5051011;28;20053;-71
2021/08/21 04:14:47;;;;;;;39.57;30.80;;;15.60;99.90;;;;;;5050747;28;20057;-71
2021/08/21 04:17:13;;;;;;;34.17;27.27;;;15.60;99.90;;;;;;5050431;28;20448;-72
2021/08/21 04:19:39;;;;;;;37.47;30.90;;;15.60;99.90;;;;;;5050458;28;20061;-71
2021/08/21 04:22:05;;;;;;;35.17;25.70;;;15.70;99.90;;;;;;5051145;28;20049;-72
2021/08/21 04:24:30;;;;;;;30.13;24.23;;;15.60;99.90;;;;;;5053454;28;20045;-71
2021/08/21 04:26:56;;;;;;;33.50;27.03;;;15.60;99.90;;;;;;5054495;28;20174;-71
2021/08/21 04:29:21;;;;;;;37.07;26.63;;;15.60;99.90;;;;;;5054596;28;20041;-71
2021/08/21 04:31:47;;;;;;;37.77;29.60;;;15.60;99.90;;;;;;5053727;28;20131;-71
2021/08/21 04:34:13;;;;;;;42.17;31.13;;;15.70;99.90;;;;;;5055021;28;20118;-71
2021/08/21 04:36:39;;;;;;;35.23;26.97;;;15.60;99.90;;;;;;5054608;28;20080;-72
2021/08/21 04:39:07;;;;;;;39.43;29.30;;;15.70;99.90;;;;;;5053644;28;20068;-72
2021/08/21 04:41:33;;;;;;;41.10;30.43;;;15.60;99.90;;;;;;5054829;28;20486;-71
2021/08/21 04:43:58;;;;;;;34.93;26.47;;;15.60;99.90;;;;;;5054246;28;20595;-71
2021/08/21 04:46:24;;;;;;;32.70;27.07;;;15.60;99.90;;;;;;5053768;28;20112;-71
2021/08/21 04:48:49;;;;;;;37.07;30.03;;;15.60;99.90;;;;;;5054115;28;20045;-72
2021/08/21 04:51:15;;;;;;;35.10;28.00;;;15.60;99.90;;;;;;5054183;28;20401;-71
2021/08/21 04:53:41;;;;;;;41.73;32.37;;;15.60;99.90;;;;;;5053573;28;20083;-72
2021/08/21 04:56:06;;;;;;;35.37;27.00;;;15.60;99.90;;;;;;5054485;28;20045;-71
2021/08/21 04:58:32;;;;;;;40.67;30.63;;;15.60;99.90;;;;;;5054542;28;20048;-72
2021/08/21 05:00:58;;;;;;;43.57;32.37;;;15.60;99.90;;;;;;5053401;28;20411;-71
2021/08/21 05:03:23;;;;;;;36.13;29.00;;;15.60;99.90;;;;;;5054156;28;20063;-71
2021/08/21 05:05:49;;;;;;;36.67;30.43;;;15.70;99.90;;;;;;5053507;28;20098;-71
2021/08/21 05:08:16;;;;;;;35.90;30.53;;;15.70;99.90;;;;;;5053308;28;20087;-70
2021/08/21 05:10:42;;;;;;;39.73;32.30;;;15.70;99.90;;;;;;5053633;28;20049;-72
2021/08/21 05:13:08;;;;;;;38.50;32.77;;;15.70;99.90;;;;;;5053033;28;20049;-71
2021/08/21 05:15:33;;;;;;;39.07;31.57;;;15.60;99.90;;;;;;5050747;28;20498;-70
2021/08/21 05:18:01;;;;;;;39.90;28.97;;;15.60;99.90;;;;;;5042533;28;20045;-71
2021/08/21 05:20:31;;;;;;;41.03;32.47;;;15.60;99.90;;;;;;5042206;28;20501;-71
2021/08/21 05:23:08;;;;;;;37.10;29.97;;;15.70;99.90;;;;;;5043815;28;20045;-71
2021/08/21 05:25:39;;;;;;;39.37;31.60;;;15.60;99.90;;;;;;5044450;28;20061;-71
2021/08/21 05:28:06;;;;;;;36.30;30.00;;;15.60;99.90;;;;;;5032779;28;20437;-71
2021/08/21 05:30:38;;;;;;;38.17;31.80;;;15.60;99.90;;;;;;5034076;28;20398;-71
2021/08/21 05:33:08;;;;;;;;;;;15.60;99.90;;;;;;5034161;28;20136;-71
2021/08/21 05:35:35;;;;;;;36.00;30.37;;;15.60;99.90;;;;;;5032237;28;19925;-71
2021/08/21 05:38:02;;;;;;;29.93;24.57;;;15.60;99.90;;;;;;5033262;28;20451;-71
2021/08/21 05:40:27;;;;;;;32.57;27.57;;;15.60;99.90;;;;;;5033647;28;20124;-71
2021/08/21 05:42:53;;;;;;;39.50;33.27;;;15.60;99.90;;;;;;5032748;28;20414;-71
2021/08/21 05:45:19;;;;;;;39.80;33.80;;;15.60;99.90;;;;;;5033318;28;20065;-70
2021/08/21 05:47:45;;;;;;;31.13;27.60;;;15.70;99.90;;;;;;5033212;28;20125;-71
2021/08/21 05:50:12;;;;;;;38.20;32.23;;;15.70;99.90;;;;;;5032564;28;20471;-71
2021/08/21 05:52:38;;;;;;;32.33;28.10;;;15.70;99.90;;;;;;5033215;28;20053;-71
2021/08/21 05:55:04;;;;;;;33.73;28.60;;;15.70;99.90;;;;;;5033130;28;20045;-72
2021/08/21 05:57:29;;;;;;;29.20;26.03;;;15.70;99.90;;;;;;5032745;28;20046;-71
2021/08/21 05:59:55;;;;;;;36.50;32.30;;;15.70;99.90;;;;;;5032388;28;20128;-72
2021/08/21 06:02:21;;;;;;;32.13;28.63;;;15.80;99.90;;;;;;5032181;28;20103;-71
2021/08/21 06:04:46;;;;;;;34.43;30.23;;;15.80;99.90;;;;;;5031964;28;20064;-71
2021/08/21 06:07:12;;;;;;;38.57;33.90;;;15.90;99.90;;;;;;5032598;28;20061;-71
2021/08/21 06:09:38;;;;;;;39.00;32.03;;;15.90;99.90;;;;;;5031696;28;20050;-71
2021/08/21 06:12:04;;;;;;;32.20;28.40;;;16.00;99.90;;;;;;5032671;28;20391;-72
2021/08/21 06:14:30;;;;;;;35.70;31.80;;;16.00;99.90;;;;;;5032026;28;20046;-71
2021/08/21 06:16:56;;;;;;;36.17;30.67;;;16.00;99.90;;;;;;5031373;28;20077;-72
2021/08/21 06:19:21;;;;;;;39.37;32.43;;;16.10;99.90;;;;;;5031673;28;20513;-70
2021/08/21 06:21:47;;;;;;;37.33;33.23;;;16.10;99.90;;;;;;5031923;28;20061;-71
2021/08/21 06:24:13;;;;;;;38.50;32.70;;;16.10;99.90;;;;;;5031451;28;20049;-71
2021/08/21 06:26:39;;;;;;;36.23;31.90;;;16.20;99.90;;;;;;5031886;28;20057;-72
2021/08/21 06:29:04;;;;;;;37.60;31.63;;;16.20;99.90;;;;;;5031934;28;20114;-72
2021/08/21 06:31:30;;;;;;;44.63;33.87;;;16.30;99.90;;;;;;5031613;28;20483;-71
2021/08/21 06:33:56;;;;;;;37.00;32.50;;;16.30;99.90;;;;;;5031607;28;20049;-70
2021/08/21 06:36:21;;;;;;;39.70;33.87;;;16.30;99.90;;;;;;5031946;28;20098;-70
2021/08/21 06:38:47;;;;;;;34.77;31.07;;;16.40;99.90;;;;;;5031331;28;20056;-72
2021/08/21 06:41:13;;;;;;;37.00;33.03;;;16.50;99.80;;;;;;5032271;28;20491;-72
2021/08/21 06:43:38;;;;;;;42.20;33.97;;;16.50;99.80;;;;;;5031855;28;20091;-74
2021/08/21 06:46:04;;;;;;;40.50;33.67;;;16.60;99.70;;;;;;5030871;28;20050;-72
2021/08/21 06:48:32;;;;;;;37.00;31.87;;;16.60;99.60;;;;;;5031025;28;20509;-73
2021/08/21 06:50:57;;;;;;;36.50;32.60;;;16.70;99.60;;;;;;5031261;28;20521;-71
2021/08/21 06:53:24;;;;;;;37.60;33.37;;;16.80;99.50;;;;;;5031290;28;20132;-72
2021/08/21 06:55:50;;;;;;;40.23;33.93;;;16.90;99.40;;;;;;5030804;28;20084;-72
2021/08/21 06:58:19;;;;;;;37.40;33.07;;;17.00;99.40;;;;;;5031221;28;20263;-72
2021/08/21 07:00:44;;;;;;;39.23;30.70;;;17.00;99.30;;;;;;5029023;28;20184;-72
2021/08/21 07:03:10;;;;;;;39.17;32.80;;;17.00;99.20;;;;;;5030968;28;20049;-72
2021/08/21 07:05:36;;;;;;;39.17;34.80;;;17.20;99.20;;;;;;5030273;28;20053;-72
2021/08/21 07:08:03;;;;;;;40.23;33.90;;;17.20;99.20;;;;;;5030876;28;20059;-72
2021/08/21 07:10:28;;;;;;;40.73;35.37;;;17.20;99.10;;;;;;5031111;28;20389;-72
2021/08/21 07:12:54;;;;;;;40.93;33.70;;;17.30;99.10;;;;;;5029330;28;20049;-72
2021/08/21 07:15:20;;;;;;;40.30;34.27;;;17.40;99.10;;;;;;5031401;28;20050;-72
2021/08/21 07:17:46;;;;;;;41.00;35.30;;;17.40;99.00;;;;;;5031435;28;20128;-72
2021/08/21 07:20:12;;;;;;;40.90;33.53;;;17.50;98.90;;;;;;5030434;28;20107;-72
2021/08/21 07:22:38;;;;;;;39.93;34.97;;;17.50;98.80;;;;;;5031298;28;20049;-72
2021/08/21 07:25:05;;;;;;;38.10;33.77;;;17.50;98.80;;;;;;5031754;28;20238;-72
2021/08/21 07:27:30;;;;;;;39.13;33.37;;;17.60;98.80;;;;;;5031025;28;20045;-72
2021/08/21 07:29:56;;;;;;;33.63;30.03;;;17.60;98.70;;;;;;5031652;28;20137;-72
2021/08/21 07:32:22;;;;;;;36.07;31.70;;;17.60;98.60;;;;;;5031711;28;20054;-72
2021/08/21 07:34:47;;;;;;;37.40;32.23;;;17.70;98.60;;;;;;5030378;28;20510;-72
2021/08/21 07:37:13;;;;;;;34.37;30.47;;;17.70;98.60;;;;;;5031670;28;20045;-72
2021/08/21 07:39:38;;;;;;;37.80;31.90;;;17.80;98.50;;;;;;5031104;28;20051;-72
2021/08/21 07:42:05;;;;;;;35.57;31.03;;;17.80;98.50;;;;;;5030676;28;20053;-72
2021/08/21 07:44:30;;;;;;;34.93;30.33;;;17.90;98.40;;;;;;5031681;28;20064;-72
2021/08/21 07:46:56;;;;;;;40.33;30.50;;;18.00;98.30;;;;;;5031206;28;20546;-72
2021/08/21 07:49:21;;;;;;;35.53;30.17;;;18.00;98.20;;;;;;5030532;28;20164;-72
2021/08/21 07:51:47;;;;;;;34.73;30.70;;;18.00;98.10;;;;;;5031215;28;20073;-72
2021/08/21 07:54:13;;;;;;;36.70;30.53;;;18.10;98.10;;;;;;5031284;28;20064;-72
2021/08/21 07:56:39;;;;;;;33.90;30.20;;;18.20;98.00;;;;;;5030510;28;20053;-72
2021/08/21 07:59:04;;;;;;;32.13;27.77;;;18.20;98.00;;;;;;5033310;28;20452;-72
2021/08/21 08:01:30;;;;;;;33.60;28.43;;;18.30;98.00;;;;;;5035495;28;20541;-72
2021/08/21 08:03:56;;;;;;;29.53;24.73;;;18.40;98.00;;;;;;5034059;28;20048;-72
2021/08/21 08:06:21;;;;;;;27.77;24.93;;;18.50;97.90;;;;;;5035257;28;20051;-72
2021/08/21 08:08:47;;;;;;;27.90;24.93;;;18.60;97.60;;;;;;5034725;28;20049;-72
2021/08/21 08:11:13;;;;;;;27.63;24.57;;;18.70;97.70;;;;;;5034294;28;20053;-72
2021/08/21 08:13:41;;;;;;;24.60;21.63;;;18.80;97.10;;;;;;5034573;28;20228;-73
2021/08/21 08:16:07;;;;;;;25.43;22.73;;;18.90;97.00;;;;;;5034024;28;20463;-72
2021/08/21 08:18:33;;;;;;;25.13;22.33;;;19.00;96.80;;;;;;5034635;28;20057;-73
2021/08/21 08:20:59;;;;;;;25.83;23.13;;;19.10;96.50;;;;;;5034624;28;20513;-73
2021/08/21 08:23:25;;;;;;;22.97;20.57;;;19.20;96.20;;;;;;5033975;28;20100;-72
2021/08/21 08:25:50;;;;;;;26.70;23.80;;;19.20;96.10;;;;;;5034374;28;20045;-73
2021/08/21 08:28:16;;;;;;;24.53;21.93;;;19.20;95.90;;;;;;5034489;28;20457;-72
2021/08/21 08:30:42;;;;;;;25.10;22.57;;;19.20;95.60;;;;;;5033731;28;20071;-73
2021/08/21 08:33:08;;;;;;;25.30;22.70;;;19.20;95.30;;;;;;5034574;28;20045;-72
2021/08/21 08:35:34;;;;;;;21.70;19.57;;;19.20;95.00;;;;;;5034540;28;20119;-72
2021/08/21 08:38:00;;;;;;;20.90;18.23;;;19.20;94.90;;;;;;5033324;28;20049;-73
2021/08/21 08:40:26;;;;;;;20.57;18.53;;;19.20;94.90;;;;;;5034587;28;20045;-72
2021/08/21 08:42:52;;;;;;;24.23;21.63;;;19.30;94.90;;;;;;5033941;28;20069;-72
2021/08/21 08:45:18;;;;;;;22.70;20.27;;;19.40;95.00;;;;;;5033598;28;20045;-72
2021/08/21 08:47:43;;;;;;;21.97;19.80;;;19.60;94.90;;;;;;5033941;28;20092;-73
2021/08/21 08:50:12;;;;;;;22.60;20.40;;;19.80;94.70;;;;;;5034062;28;20184;-72
2021/08/21 08:52:39;;;;;;;20.10;18.00;;;19.90;94.10;;;;;;5033358;28;20053;-73
2021/08/21 08:55:08;;;;;;;21.33;19.07;;;19.90;93.70;;;;;;5034252;28;20494;-72
2021/08/21 08:57:44;;;;;;;19.97;17.77;;;19.90;93.00;;;;;;5034177;28;20057;-73
2021/08/21 09:00:15;;;;;;;18.90;16.90;;;19.90;92.70;;;;;;5033115;28;20149;-72
2021/08/21 09:02:47;;;;;;;19.92;17.55;;;19.90;92.70;;;;;;5033900;28;20064;-73
2021/08/21 09:05:13;;;;;;;;;;;20.00;92.50;;;;;;5033654;28;20056;-73
2021/08/21 09:07:48;;;;;;;18.67;16.73;;;20.00;92.30;;;;;;5033552;28;20342;-73
2021/08/21 09:10:25;;;;;;;17.63;15.77;;;20.10;92.80;;;;;;5032688;28;20403;-73
2021/08/21 09:13:05;;;;;;;17.45;15.65;;;20.20;92.40;;;;;;5033011;28;20057;-73
2021/08/21 09:15:36;;;;;;;15.23;13.63;;;20.20;91.60;;;;;;5033870;28;20053;-73
2021/08/21 09:18:15;;;;;;;15.25;13.68;;;20.20;91.50;;;;;;5033505;28;20092;-71
2021/08/21 09:20:47;;;;;;;10.93;9.82;;;20.20;91.30;;;;;;5032492;28;20064;-71
2021/08/21 09:23:28;;;;;;;15.02;13.52;;;20.20;91.40;;;;;;5033525;28;20148;-71
2021/08/21 09:26:34;;;;;;;12.65;11.02;;;20.20;91.30;;;;;;5033788;28;20446;-71
2021/08/21 09:29:01;;;;;;;14.52;12.90;;;20.30;90.40;;;;;;5033229;28;20414;-71
2021/08/21 09:31:33;;;;;;;13.48;12.18;;;20.30;90.90;;;;;;5033334;28;20045;-71
2021/08/21 09:34:04;;;;;;;14.45;12.63;;;20.40;90.80;;;;;;5032410;28;20054;-71
2021/08/21 09:36:38;;;;;;;9.32;8.43;;;20.40;90.70;;;;;;5033339;28;20123;-71
2021/08/21 09:39:05;;;;;;;8.68;7.78;;;20.40;90.20;;;;;;5033040;28;20056;-73
2021/08/21 09:41:50;;;;;;;10.63;8.82;;;20.50;89.90;;;;;;5032613;28;20128;-71
2021/08/21 09:44:25;;;;;;;10.88;9.77;;;20.70;90.00;;;;;;5033355;28;20049;-71
2021/08/21 09:47:08;;;;;;;11.43;10.23;;;21.00;89.40;;;;;;5033186;28;20053;-73
2021/08/21 09:49:34;;;;;;;10.73;9.68;;;21.10;86.90;;;;;;5032393;28;20053;-71
2021/08/21 09:52:11;;;;;;;9.80;8.55;;;21.20;87.00;;;;;;5032661;28;20061;-71
2021/08/21 09:54:41;;;;;;;8.70;7.82;;;21.30;86.40;;;;;;5032205;28;20506;-72
2021/08/21 09:57:10;;;;;;;6.78;5.93;;;21.40;85.70;;;;;;5033169;28;20056;-72
2021/08/21 09:59:39;;;;;;;7.65;6.85;;;21.50;84.20;;;;;;5033360;28;20072;-72
2021/08/21 10:02:14;;;;;;;6.40;5.75;;;21.40;82.50;;;;;;5032101;28;20049;-71
2021/08/21 10:04:43;;;;;;;7.65;6.88;;;21.30;81.20;;;;;;5032568;28;20057;-71
2021/08/21 10:07:13;;;;;;;9.60;7.30;;;21.20;82.40;;;;;;5032949;28;20061;-71
2021/08/21 10:09:40;;;;;;;9.50;6.82;;;21.10;82.80;;;;;;5031678;28;20045;-71
2021/08/21 10:12:11;;;;;;;8.10;6.43;;;21.00;82.50;;;;;;5032819;28;20088;-71
2021/08/21 10:14:39;;;;;;;8.52;7.53;;;21.00;82.50;;;;;;5032262;28;20072;-71
2021/08/21 10:17:08;;;;;;;8.30;6.93;;;21.00;82.40;;;;;;5031333;28;20049;-72
2021/08/21 10:19:37;;;;;;;7.57;6.78;;;21.10;80.90;;;;;;5032248;28;20144;-71
2021/08/21 10:22:04;;;;;;;9.30;8.40;;;21.10;80.60;;;;;;5032181;28;20098;-71
2021/08/21 10:24:42;;;;;;;8.57;7.78;;;21.20;81.10;;;;;;5031747;28;20099;-71
2021/08/21 10:27:23;;;;;;;8.15;6.05;;;21.30;81.70;;;;;;5032713;28;20061;-71
2021/08/21 10:30:09;;;;;;;9.70;6.72;;;21.40;81.50;;;;;;5031357;28;20159;-71
2021/08/21 10:32:40;;;;;;;8.80;6.50;;;21.40;80.00;;;;;;5032711;28;20091;-71
2021/08/21 10:35:07;;;;;;;;;;;21.50;80.60;;;;;;5032618;28;20056;-72
2021/08/21 10:37:47;;;;;;;7.75;6.70;;;21.50;80.30;;;;;;5031700;28;20003;-72
2021/08/21 10:40:28;;;;;;;8.45;6.30;;;21.60;80.00;;;;;;5032208;28;20053;-72
2021/08/21 10:42:57;;;;;;;7.07;5.72;;;21.70;78.10;;;;;;5032034;28;20414;-72
2021/08/21 10:45:42;;;;;;;8.50;7.47;;;21.80;78.60;;;;;;5031426;28;20053;-72
2021/08/21 10:48:13;;;;;;;6.13;5.45;;;21.80;77.70;;;;;;5031754;28;20123;-71
2021/08/21 10:50:46;;;;;;;5.67;5.07;;;21.70;76.50;;;;;;5030434;28;20132;-72
2021/08/21 10:53:22;;;;;;;9.02;8.13;;;21.70;76.50;;;;;;5032055;28;20296;-72
2021/08/21 10:55:49;;;;;;;9.00;6.65;;;21.60;76.50;;;;;;5031491;28;20045;-73
2021/08/21 10:58:15;;;;;;;7.10;6.38;;;21.60;77.30;;;;;;5031099;28;20053;-72
2021/08/21 11:00:45;;;;;;;8.40;7.35;;;21.70;78.00;;;;;;5031261;28;20057;-72
2021/08/21 11:03:17;;;;;;;7.22;5.97;;;21.70;77.60;;;;;;5031290;28;20057;-72
2021/08/21 11:05:51;;;;;;;6.18;4.85;;;21.70;76.30;;;;;;5030676;28;20155;-72
2021/08/21 11:08:18;;;;;;;4.63;3.88;;;21.70;75.10;;;;;;5031576;28;20134;-72
2021/08/21 11:10:44;;;;;;;5.22;3.90;;;21.70;73.90;;;;;;5031352;28;20153;-72
2021/08/21 11:13:12;;;;;;;5.70;5.15;;;21.80;74.50;;;;;;5030686;28;20587;-72
2021/08/21 11:15:38;;;;;;;6.57;5.82;;;22.00;74.30;;;;;;5031336;28;20056;-73
2021/08/21 11:18:19;;;;;;;8.00;6.22;;;22.20;73.80;;;;;;5031510;28;20475;-72
2021/08/21 11:20:45;;;;;;;6.63;5.38;;;22.40;74.00;;;;;;5030372;28;20050;-74
2021/08/21 11:23:14;;;;;;;6.07;5.40;;;22.50;74.10;;;;;;5031642;28;20053;-72
2021/08/21 11:25:42;;;;;;;6.63;6.03;;;22.50;73.00;;;;;;5030993;28;20121;-72
2021/08/21 11:28:13;;;;;;;5.20;4.70;;;22.50;72.90;;;;;;5030215;28;20100;-72
2021/08/21 11:30:39;;;;;;;12.00;4.67;;;22.50;72.70;;;;;;5031425;28;20049;-72
2021/08/21 11:33:08;;;;;;;4.50;3.60;;;22.50;72.80;;;;;;5029811;28;20132;-71
2021/08/21 11:35:38;;;;;;;5.07;4.40;;;22.40;71.10;;;;;;5031611;28;20152;-72
2021/08/21 11:38:07;;;;;;;5.30;4.20;;;22.40;70.40;;;;;;5031434;28;20049;-72
2021/08/21 11:40:36;;;;;;;4.60;4.00;;;22.30;70.70;;;;;;5030499;28;20061;-71
2021/08/21 11:43:04;;;;;;;4.40;4.00;;;22.30;71.50;;;;;;5031018;28;20057;-72
2021/08/21 11:45:31;;;;;;;6.45;5.80;;;22.40;72.50;;;;;;5031097;28;20052;-72
2021/08/21 11:47:57;;;;;;;6.70;5.90;;;22.60;72.10;;;;;;5030076;28;20473;-72
2021/08/21 11:51:00;;;;;;;7.22;6.45;;;22.70;71.00;;;;;;5031031;28;20435;-72
2021/08/21 11:53:28;;;;;;;6.53;5.85;;;22.90;71.40;;;;;;5009141;28;20109;-72
2021/08/21 11:55:57;;;;;;;6.38;5.70;;;23.00;71.60;;;;;;5026235;28;20114;-72
2021/08/21 11:58:34;;;;;;;5.70;5.07;;;23.10;71.20;;;;;;5031107;28;20165;-72
2021/08/21 12:01:12;;;;;;;6.00;4.13;;;23.20;70.00;;;;;;5030122;28;20070;-70
2021/08/21 12:06:27;;;;;;;3.47;3.00;;;22.90;70.40;;;;;;5030779;28;20426;-73
2021/08/21 12:09:11;;;;;;;4.72;4.22;;;22.70;70.60;;;;;;5030067;28;20132;-72
2021/08/21 12:11:39;;;;;;;4.35;3.70;;;22.60;70.20;;;;;;5031146;28;20053;-73
2021/08/21 12:14:05;;;;;;;3.92;3.13;;;22.50;70.60;;;;;;5030811;28;20104;-73
2021/08/21 12:16:34;;;;;;;4.80;3.40;;;22.40;70.90;;;;;;5030490;28;20125;-73
2021/08/21 12:19:00;;;;;;;4.38;3.90;;;22.40;71.60;;;;;;5030484;28;20053;-72
2021/08/21 12:21:26;;;;;;;6.20;4.65;;;22.50;69.90;;;;;;5030938;28;20133;-72
2021/08/21 12:23:54;;;;;;;6.22;4.78;;;22.60;69.10;;;;;;5029742;28;20068;-72
2021/08/21 12:26:44;;;;;;;4.55;3.63;;;22.90;68.90;;;;;;5030307;28;20125;-73
2021/08/21 12:29:25;;;;;;;4.23;3.77;;;23.00;69.30;;;;;;5030137;28;20498;-72
2021/08/21 12:31:51;;;;;;;4.50;3.67;;;23.00;68.60;;;;;;5030799;28;20642;-72
2021/08/21 12:34:19;;;;;;;3.83;3.22;;;22.90;68.90;;;;;;5030527;28;20487;-73
2021/08/21 12:36:45;;;;;;;4.63;3.63;;;22.80;69.10;;;;;;5029717;28;20348;-73
2021/08/21 12:39:11;;;;;;;3.53;2.65;;;22.70;69.10;;;;;;5031014;28;20073;-73